Aérodrome :
LOGIN :

S'inscrire | Disclaimer

   EN    FR    IT 

 










Légende :    VFR   VFR Marginal   IFR   IFR Intensif   IFR Très Intensif
Visi : 
Plafond : 
>= 8 km
>= 3000ft
5 à 8 km
1000 à 3000 ft
1500m à 5 km
500 à 1000 ft
800 à 1500m
200 à 500 ft
< 800m
< 200 ft
Symboles :   Orages  Brouillard  Fortes neiges  Fortes précipitations  Vent > 20 kt
SIGMETs :   Divers  Orages  Givrage  Turbulence  Onde Orograph.  Cendres Volcan.






- Altitude de l'aérodrome : 12 ft
- Code IATA : BCN


LEBL - Barcelone

DERNIER METAR :
  • 050630Z 32006KT 300V360 9999 FEW035 18/10 Q1008 NOSIG

METARs EXPIRÉS :
  • 050600Z 31005KT 260V040 9999 FEW030 16/10 Q1007 NOSIG
  • 050530Z 32009KT 290V350 9999 FEW025 16/10 Q1007 NOSIG
  • 050500Z 33008KT 9999 FEW025 16/10 Q1007 NOSIG
  • 050430Z 31007KT 9999 FEW022 15/10 Q1007 NOSIG
  • 050400Z 34005KT 9999 FEW022 15/10 Q1006 NOSIG

TAF TAF LEBL
Valide du 05 à 06h jusqu'au 06 à 06h UTC


050500Z 0506/0606 34007KT CAVOK TX26/0512Z TN16/0506Z
BECMG 0510/0512 22012KT
TEMPO 0513/0519 22015G25KT
BECMG 0518/0520 34007KT



MET'MAP, la Météo Aéronautique d'un coup d'oeil ! - Copyright ORBIFLY Décembre 2007 - Disclaimer

ORBIFLY MET'MAP TEAM :

Programmation & Développement : Alexandra Zaïnal
Sur une idée originale de : Baudouin d'Aumeries
Assistance à la programmation : Marc-Olivier Méhu
Soutien technique & logistique : Manuel Goepfert

Contact : metmap@orbifly.com




SOURCES & CREDITS :

   NOAA